Time;durP1;ratioP1;P1;durP2;ratioP2;P2;SDS_P1;SDS_P2;PMS_P1;PMS_P2;Temp;Humidity;BMP_temperature;BMP_pressure;BME280_temperature;BME280_humidity;BME280_pressure;Samples;Min_cycle;Max_cycle;Signal;HPM_P1;HPM_P2
2024/01/19 00:01:52;;;;;;;0.10;0.10;;;;;;;-3.60;81.33;100579.47;4959532;28;20033;-78
2024/01/19 00:04:18;;;;;;;0.00;0.00;;;;;;;-3.67;80.98;100575.81;4981558;28;20028;-78
2024/01/19 00:06:43;;;;;;;0.00;0.00;;;;;;;-3.64;81.12;100581.63;4975890;28;20531;-78
2024/01/19 00:09:09;;;;;;;0.10;0.10;;;;;;;-3.63;80.97;100574.47;4971209;28;20109;-78
2024/01/19 00:11:34;;;;;;;0.10;0.10;;;;;;;-3.70;80.81;100572.44;4978669;28;20052;-78
2024/01/19 00:13:59;;;;;;;0.00;0.00;;;;;;;-3.67;80.81;100575.81;4989818;28;20026;-77
2024/01/19 00:16:26;;;;;;;0.00;0.00;;;;;;;-3.67;80.97;100590.00;4986271;28;20038;-77
2024/01/19 00:18:51;;;;;;;0.00;0.00;;;;;;;-3.70;80.64;100583.13;4961826;28;20022;-77
2024/01/19 00:21:17;;;;;;;0.10;0.10;;;;;;;-3.71;81.14;100592.19;4973746;28;20038;-80
2024/01/19 00:23:42;;;;;;;0.10;0.10;;;;;;;-3.74;81.20;100592.53;4981398;28;20144;-76
2024/01/19 00:26:07;;;;;;;0.10;0.10;;;;;;;-3.79;81.21;100594.84;4985914;28;20073;-76
2024/01/19 00:28:33;;;;;;;0.10;0.10;;;;;;;-3.77;80.82;100598.19;4972713;28;20030;-76
2024/01/19 00:30:58;;;;;;;0.10;0.10;;;;;;;-3.85;80.96;100590.19;4971546;28;20066;-77
2024/01/19 00:33:24;;;;;;;0.10;0.10;;;;;;;-3.84;81.00;100599.88;4997415;28;20747;-75
2024/01/19 00:35:49;;;;;;;0.10;0.10;;;;;;;-3.85;80.66;100611.56;4974257;28;20035;-76
2024/01/19 00:38:14;;;;;;;0.10;0.10;;;;;;;-3.96;80.63;100609.22;4981533;28;20369;-77
2024/01/19 00:40:40;;;;;;;0.10;0.10;;;;;;;-4.01;80.28;100616.91;4966305;28;20033;-77
2024/01/19 00:43:05;;;;;;;0.10;0.10;;;;;;;-4.03;81.14;100620.56;4978817;28;20048;-76
2024/01/19 00:45:31;;;;;;;0.10;0.10;;;;;;;-4.07;80.50;100618.41;4971731;28;20391;-77
2024/01/19 00:47:56;;;;;;;0.10;0.10;;;;;;;-4.05;80.94;100627.06;4987713;28;20030;-77
2024/01/19 00:50:22;;;;;;;0.10;0.10;;;;;;;-4.08;80.78;100614.06;4973424;28;20102;-77
2024/01/19 00:52:47;;;;;;;0.10;0.10;;;;;;;-4.09;81.09;100623.91;4960082;28;20547;-76
2024/01/19 00:55:13;;;;;;;0.10;0.10;;;;;;;-4.17;81.36;100618.53;4970253;28;20030;-77
2024/01/19 00:57:38;;;;;;;0.00;0.00;;;;;;;-4.18;81.29;100614.19;4979463;28;20056;-76
2024/01/19 01:00:05;;;;;;;0.10;0.10;;;;;;;-4.22;81.27;100615.53;4978759;28;20052;-76
2024/01/19 01:02:31;;;;;;;0.10;0.10;;;;;;;-4.17;81.75;100618.53;5000115;28;20039;-75
2024/01/19 01:04:56;;;;;;;0.10;0.10;;;;;;;-4.12;81.74;100620.72;4975999;28;20050;-75
2024/01/19 01:07:22;;;;;;;0.10;0.10;;;;;;;-4.14;81.13;100602.19;4998905;28;20168;-76
2024/01/19 01:09:48;;;;;;;0.10;0.10;;;;;;;-4.03;81.59;100620.56;5010348;28;20034;-77
2024/01/19 01:12:14;;;;;;;0.10;0.10;;;;;;;-4.07;81.29;100613.06;4991213;28;20027;-76
2024/01/19 01:14:39;;;;;;;0.10;0.10;;;;;;;-4.08;81.48;100622.88;4986219;28;20616;-75
2024/01/19 01:17:04;;;;;;;0.10;0.10;;;;;;;-4.09;81.63;100620.38;4988450;28;20050;-76
2024/01/19 01:19:31;;;;;;;0.10;0.10;;;;;;;-4.15;81.92;100611.19;4984290;28;20018;-75
2024/01/19 01:21:57;;;;;;;0.10;0.10;;;;;;;-4.07;81.85;100624.56;4966211;28;21145;-76
2024/01/19 01:24:22;;;;;;;0.10;0.10;;;;;;;-3.98;81.46;100633.44;5006006;28;20025;-76
2024/01/19 01:26:48;;;;;;;0.00;0.00;;;;;;;-3.95;81.93;100621.56;4994615;28;20435;-77
2024/01/19 01:29:15;;;;;;;0.10;0.10;;;;;;;-3.94;81.65;100624.09;4980213;28;20541;-76
2024/01/19 01:31:40;;;;;;;0.10;0.10;;;;;;;-3.89;81.58;100626.25;4985349;28;20042;-76
2024/01/19 01:34:06;;;;;;;0.10;0.10;;;;;;;-3.90;82.08;100635.25;4985020;28;20030;-75
2024/01/19 01:36:31;;;;;;;0.05;0.05;;;;;;;-3.98;82.31;100632.59;4983471;28;20117;-75
2024/01/19 01:38:56;;;;;;;0.10;0.10;;;;;;;-4.01;82.68;100643.63;4985664;28;20046;-75
2024/01/19 01:41:22;;;;;;;0.10;0.10;;;;;;;-4.03;82.34;100647.28;4992220;28;20565;-75
2024/01/19 01:43:48;;;;;;;0.10;0.10;;;;;;;-4.11;82.19;100639.25;4974213;28;20472;-76
2024/01/19 01:46:13;;;;;;;0.10;0.10;;;;;;;-4.09;82.94;100642.59;4992133;28;20029;-75
2024/01/19 01:48:39;;;;;;;0.10;0.10;;;;;;;-4.12;82.93;100634.91;4990151;28;20586;-75
2024/01/19 01:51:06;;;;;;;0.10;0.10;;;;;;;-4.04;83.05;100645.59;4992932;28;20021;-75
2024/01/19 01:53:32;;;;;;;0.00;0.00;;;;;;;-4.03;83.36;100636.59;4993475;28;20005;-76
2024/01/19 01:55:58;;;;;;;0.00;0.00;;;;;;;-3.95;83.20;100653.63;4982040;28;20018;-75
2024/01/19 01:58:23;;;;;;;0.10;0.10;;;;;;;-3.94;82.95;100650.81;4999088;28;20030;-76
2024/01/19 02:00:49;;;;;;;0.10;0.10;;;;;;;-3.95;83.31;100659.00;4983424;28;20097;-76
2024/01/19 02:03:15;;;;;;;0.10;0.10;;;;;;;-3.99;83.70;100663.81;4994906;28;21253;-76
2024/01/19 02:05:40;;;;;;;0.10;0.10;;;;;;;-4.03;83.90;100652.63;4987646;28;20126;-75
2024/01/19 02:08:06;;;;;;;0.00;0.00;;;;;;;-4.12;84.38;100642.91;4969398;28;20037;-75
2024/01/19 02:10:31;;;;;;;0.10;0.10;;;;;;;-4.09;85.06;100653.28;4983938;28;20026;-75
2024/01/19 02:12:57;;;;;;;0.10;0.10;;;;;;;-3.86;86.15;100674.00;5014022;28;20764;-76
2024/01/19 02:15:25;;;;;;;0.10;0.10;;;;;;;-3.82;86.53;100664.66;4990091;28;20068;-75
2024/01/19 02:17:52;;;;;;;0.10;0.10;;;;;;;-3.81;86.34;100669.03;4990503;28;20029;-75
2024/01/19 02:20:19;;;;;;;0.10;0.10;;;;;;;-3.76;86.54;100688.06;4989907;28;20042;-75
2024/01/19 02:22:46;;;;;;;0.10;0.10;;;;;;;-3.83;86.55;100681.69;5006113;28;20109;-75
2024/01/19 02:25:12;;;;;;;0.10;0.10;;;;;;;-3.87;86.78;100689.22;4979373;28;20079;-76
2024/01/19 02:27:38;;;;;;;0.10;0.10;;;;;;;-3.86;86.67;100695.38;5004537;28;20040;-76
2024/01/19 02:30:07;;;;;;;0.10;0.10;;;;;;;-3.85;87.40;100691.72;5004290;28;20018;-77
2024/01/19 02:32:32;;;;;;;0.10;0.10;;;;;;;-3.88;87.11;100702.75;4982685;28;20119;-77
2024/01/19 02:34:57;;;;;;;0.10;0.10;;;;;;;-3.91;87.28;100700.41;4970111;28;20105;-76
2024/01/19 02:37:23;;;;;;;0.03;0.03;;;;;;;-3.92;87.57;100686.19;5002596;28;20431;-75
2024/01/19 02:39:49;;;;;;;0.00;0.00;;;;;;;-3.84;87.29;100700.56;4965104;28;20037;-76
2024/01/19 02:42:14;;;;;;;0.10;0.10;;;;;;;-3.98;87.39;100676.16;4986687;28;20361;-76
2024/01/19 02:44:40;;;;;;;0.10;0.10;;;;;;;-3.86;87.82;100700.75;4979080;28;20045;-76
2024/01/19 02:47:05;;;;;;;0.10;0.10;;;;;;;-3.81;88.09;100697.56;4978285;28;20037;-76
2024/01/19 02:49:31;;;;;;;0.00;0.00;;;;;;;-3.74;88.82;100702.09;4978035;28;20042;-78
2024/01/19 02:51:56;;;;;;;0.10;0.10;;;;;;;-3.64;89.06;100709.13;4986764;28;20029;-77
2024/01/19 02:54:22;;;;;;;0.00;0.00;;;;;;;-3.61;88.68;100698.91;4973772;28;20449;-76
2024/01/19 02:56:47;;;;;;;0.10;0.10;;;;;;;-3.56;89.76;100712.63;4984620;28;20472;-76
2024/01/19 02:59:13;;;;;;;0.00;0.00;;;;;;;-3.48;90.17;100711.78;4951577;28;20030;-75
2024/01/19 03:01:38;;;;;;;0.10;0.10;;;;;;;-3.48;90.25;100702.94;4972303;28;20044;-76
2024/01/19 03:04:08;;;;;;;0.00;0.00;;;;;;;-3.25;90.75;100727.19;4964303;28;20033;-76
2024/01/19 03:06:33;;;;;;;0.10;0.10;;;;;;;-3.17;91.59;100721.81;4969847;28;20392;-78
2024/01/19 03:08:58;;;;;;;0.00;0.00;;;;;;;-3.17;91.02;100721.81;4981386;28;20036;-76
2024/01/19 03:11:24;;;;;;;0.00;0.00;;;;;;;-3.20;91.80;100717.66;4981238;28;20038;-77
2024/01/19 03:13:51;;;;;;;0.10;0.10;;;;;;;-3.12;92.33;100724.81;4963655;28;20034;-76
2024/01/19 03:16:16;;;;;;;0.10;0.10;;;;;;;-3.18;91.98;100718.31;5002725;28;20030;-78
2024/01/19 03:18:42;;;;;;;0.10;0.10;;;;;;;-3.19;91.50;100718.47;4958398;28;20499;-78
2024/01/19 03:21:08;;;;;;;0.10;0.10;;;;;;;-3.19;91.31;100713.13;4978167;28;20031;-79
2024/01/19 03:23:34;;;;;;;0.00;0.00;;;;;;;-3.27;92.36;100705.09;4986456;28;20029;-79
2024/01/19 03:25:59;;;;;;;0.10;0.10;;;;;;;-3.28;91.43;100701.59;4987070;28;20609;-76
2024/01/19 03:28:25;;;;;;;0.10;0.10;;;;;;;-3.22;92.41;100708.94;4958847;28;20026;-78
2024/01/19 03:30:50;;;;;;;0.10;0.10;;;;;;;-3.14;92.67;100713.44;4989284;28;20028;-76
2024/01/19 03:33:15;;;;;;;0.10;0.10;;;;;;;-3.11;92.43;100721.16;4982425;28;20033;-78
2024/01/19 03:35:41;;;;;;;0.10;0.10;;;;;;;-3.13;92.64;100720.47;4982076;28;20061;-77
2024/01/19 03:38:07;;;;;;;0.00;0.00;;;;;;;-3.20;91.96;100716.78;4976579;28;20052;-79
2024/01/19 03:40:32;;;;;;;0.10;0.10;;;;;;;-3.23;92.03;100733.19;4994385;28;20021;-78
2024/01/19 03:42:57;;;;;;;0.10;0.10;;;;;;;-3.36;92.51;100731.88;4963150;28;20061;-78
2024/01/19 03:45:23;;;;;;;0.10;0.10;;;;;;;-3.48;92.41;100735.84;4987301;28;20125;-78
2024/01/19 03:47:48;;;;;;;0.00;0.00;;;;;;;-3.63;92.58;100726.84;4960228;28;20034;-79
2024/01/19 03:50:14;;;;;;;0.10;0.10;;;;;;;-3.61;92.68;100738.19;4983226;28;20092;-78
2024/01/19 03:52:43;;;;;;;0.10;0.10;;;;;;;-3.67;92.67;100731.66;4980107;28;20038;-77
2024/01/19 03:55:08;;;;;;;0.00;0.00;;;;;;;-3.69;92.47;100745.19;4972439;28;20089;-77
2024/01/19 03:57:34;;;;;;;0.10;0.10;;;;;;;-3.72;92.66;100734.00;4980876;28;20386;-79
2024/01/19 03:59:59;;;;;;;0.10;0.10;;;;;;;-3.59;93.39;100742.38;4991109;28;20022;-77
2024/01/19 04:02:25;;;;;;;0.10;0.10;;;;;;;-3.41;94.16;100749.41;4962401;28;20034;-76
2024/01/19 04:04:50;;;;;;;0.00;0.00;;;;;;;-3.40;94.50;100735.03;4979482;28;20164;-76
2024/01/19 04:07:15;;;;;;;0.00;0.00;;;;;;;-3.25;95.03;100746.72;4951089;28;20026;-76
2024/01/19 04:09:41;;;;;;;0.10;0.10;;;;;;;-3.16;96.19;100750.25;4981476;28;20410;-77
2024/01/19 04:12:14;;;;;;;0.10;0.10;;;;;;;-3.08;96.74;100744.03;4980188;28;20028;-80
2024/01/19 04:14:42;;;;;;;0.10;0.10;;;;;;;-3.12;96.89;100724.81;4988565;28;20049;-80
2024/01/19 04:17:09;;;;;;;0.10;0.10;;;;;;;-3.07;96.82;100741.19;5011654;28;20045;-77
2024/01/19 04:19:36;;;;;;;0.00;0.00;;;;;;;-3.12;96.97;100732.84;4988299;28;20041;-78
2024/01/19 04:22:01;;;;;;;0.10;0.10;;;;;;;-3.05;96.97;100739.19;4973771;28;20051;-79
2024/01/19 04:24:26;;;;;;;0.10;0.10;;;;;;;-3.03;97.09;100745.22;4968306;28;20039;-78
2024/01/19 04:26:52;;;;;;;0.10;0.10;;;;;;;-3.02;97.71;100746.88;4964175;28;20027;-77
2024/01/19 04:29:17;;;;;;;0.00;0.00;;;;;;;-3.05;97.31;100754.41;4990635;28;20061;-78
2024/01/19 04:31:43;;;;;;;0.00;0.00;;;;;;;-3.09;97.66;100751.25;4965884;28;20498;-78
2024/01/19 04:34:08;;;;;;;0.00;0.00;;;;;;;-3.13;97.32;100736.53;4971143;28;20026;-78
2024/01/19 04:36:34;;;;;;;0.00;0.00;;;;;;;-3.11;97.82;100752.41;4983340;28;20034;-77
2024/01/19 04:38:59;;;;;;;0.00;0.00;;;;;;;-3.13;97.46;100760.59;4995279;28;20119;-77
2024/01/19 04:41:25;;;;;;;0.00;0.00;;;;;;;-3.17;97.68;100751.22;4965517;28;20038;-77
2024/01/19 04:43:50;;;;;;;0.10;0.10;;;;;;;-3.20;98.12;100754.25;4962810;28;20033;-77
2024/01/19 04:46:17;;;;;;;0.10;0.10;;;;;;;-3.25;98.26;100756.59;4989260;28;20113;-78
2024/01/19 04:48:42;;;;;;;0.10;0.10;;;;;;;-3.21;98.24;100749.94;4983299;28;20045;-75
2024/01/19 04:51:08;;;;;;;0.10;0.10;;;;;;;-3.22;98.31;100761.63;4967553;28;20025;-75
2024/01/19 04:53:33;;;;;;;0.00;0.00;;;;;;;-3.30;97.85;100764.28;4989795;28;20037;-78
2024/01/19 04:55:59;;;;;;;0.10;0.10;;;;;;;-3.29;98.37;100763.28;4981551;28;20026;-76
2024/01/19 04:58:24;;;;;;;0.03;0.03;;;;;;;-3.24;99.21;100763.59;4968049;28;20034;-76
2024/01/19 05:00:49;;;;;;;0.10;0.10;;;;;;;-3.17;99.29;100775.31;4991344;28;20030;-76
2024/01/19 05:03:15;;;;;;;0.00;0.00;;;;;;;-3.15;99.37;100765.28;5008393;28;20048;-77
2024/01/19 05:05:41;;;;;;;0.00;0.00;;;;;;;-3.04;99.91;100769.47;4968582;28;20025;-76
2024/01/19 05:08:06;;;;;;;0.00;0.00;;;;;;;-2.99;99.41;100784.00;5005871;28;20029;-77
2024/01/19 05:10:32;;;;;;;0.00;0.00;;;;;;;-3.06;99.69;100776.84;4964914;28;21693;-77
2024/01/19 05:12:57;;;;;;;0.00;0.00;;;;;;;-3.10;100.00;100781.66;4967188;28;20043;-76
2024/01/19 05:15:23;;;;;;;0.10;0.10;;;;;;;-3.11;100.00;100796.06;4990247;28;20053;-75
2024/01/19 05:17:48;;;;;;;0.10;0.10;;;;;;;-3.23;100.00;100776.00;4990640;28;20100;-76
2024/01/19 05:20:14;;;;;;;0.10;0.10;;;;;;;-3.34;100.00;100769.97;4970743;28;20029;-76
2024/01/19 05:22:39;;;;;;;0.00;0.00;;;;;;;-3.31;100.00;100778.66;4992638;28;20104;-78
2024/01/19 05:25:05;;;;;;;0.10;0.10;;;;;;;-3.29;100.00;100788.19;4992875;28;20026;-77
2024/01/19 05:27:30;;;;;;;0.10;0.10;;;;;;;-3.31;100.00;100789.34;4979505;28;20041;-77
2024/01/19 05:29:56;;;;;;;0.10;0.10;;;;;;;-3.42;100.00;100777.97;4998130;28;20116;-78
2024/01/19 05:32:21;;;;;;;0.10;0.10;;;;;;;-3.51;100.00;100789.66;4973141;28;20574;-77
2024/01/19 05:34:46;;;;;;;0.00;0.00;;;;;;;-3.56;100.00;100792.03;5007881;28;20053;-77
2024/01/19 05:37:12;;;;;;;0.05;0.05;;;;;;;-3.67;100.00;100795.81;4978249;28;20388;-78
2024/01/19 05:39:37;;;;;;;0.10;0.10;;;;;;;-3.73;100.00;100797.31;4954286;28;20049;-76
2024/01/19 05:42:03;;;;;;;0.00;0.00;;;;;;;-3.76;100.00;100792.28;4984138;28;20026;-76
2024/01/19 05:44:28;;;;;;;0.00;0.00;;;;;;;-3.81;100.00;100799.97;4977496;28;20097;-76
2024/01/19 05:46:53;;;;;;;0.10;0.10;;;;;;;-3.93;100.00;100790.56;4996302;28;20022;-76
2024/01/19 05:49:19;;;;;;;0.10;0.10;;;;;;;-4.03;100.00;100786.22;4972642;28;20045;-77
2024/01/19 05:51:45;;;;;;;0.10;0.10;;;;;;;-4.00;100.00;100795.75;4988543;28;20461;-76
2024/01/19 05:54:11;;;;;;;0.10;0.10;;;;;;;-4.01;100.00;100798.56;4979884;28;20026;-76
2024/01/19 05:56:36;;;;;;;0.10;0.10;;;;;;;-4.00;100.00;100809.09;4984100;28;20087;-78
2024/01/19 05:59:02;;;;;;;0.10;0.10;;;;;;;-4.01;100.00;100809.25;4981687;28;20113;-77
2024/01/19 06:01:30;;;;;;;0.10;0.10;;;;;;;-4.03;100.00;100812.06;4995584;28;20518;-78
2024/01/19 06:03:58;;;;;;;0.10;0.10;;;;;;;-4.14;100.00;100801.69;4987758;28;20021;-77
2024/01/19 06:06:23;;;;;;;0.10;0.10;;;;;;;-4.15;100.00;100803.50;5024901;28;20033;-77
2024/01/19 06:08:49;;;;;;;0.00;0.00;;;;;;;-4.13;100.00;100812.22;4978924;28;20032;-76
2024/01/19 06:11:14;;;;;;;0.10;0.10;;;;;;;-4.12;100.00;100816.53;4958174;28;20022;-77
2024/01/19 06:13:40;;;;;;;0.10;0.10;;;;;;;-4.21;100.00;100810.31;4993967;28;20413;-77
2024/01/19 06:16:06;;;;;;;0.10;0.10;;;;;;;-4.21;100.00;100818.34;4982677;28;20049;-77
2024/01/19 06:18:33;;;;;;;0.00;0.00;;;;;;;-4.26;100.00;100819.84;4970333;28;20026;-76
2024/01/19 06:21:00;;;;;;;0.05;0.05;;;;;;;-4.20;100.00;100816.53;4991413;28;20025;-77
2024/01/19 06:23:26;;;;;;;0.10;0.10;;;;;;;-4.05;100.00;100833.59;4957046;28;20053;-77
2024/01/19 06:25:52;;;;;;;0.10;0.10;;;;;;;-3.94;100.00;100832.50;5003575;28;20045;-76
2024/01/19 06:28:17;;;;;;;0.10;0.10;;;;;;;-3.97;100.00;100838.16;5008038;28;20029;-77
2024/01/19 06:30:44;;;;;;;0.10;0.10;;;;;;;-3.98;100.00;100841.00;5015949;28;20017;-76
2024/01/19 06:33:10;;;;;;;0.10;0.10;;;;;;;-3.99;100.00;100840.13;4986505;28;20037;-77
2024/01/19 06:35:36;;;;;;;0.10;0.10;;;;;;;-3.99;100.00;100858.00;5008249;28;20030;-76
2024/01/19 06:38:01;;;;;;;0.00;0.00;;;;;;;-3.99;100.00;100850.00;4977028;28;20755;-77
2024/01/19 06:40:27;;;;;;;0.00;0.00;;;;;;;-3.92;100.00;100843.84;4982529;28;20021;-78
2024/01/19 06:42:52;;;;;;;0.00;0.00;;;;;;;-3.88;100.00;100844.38;4994411;28;20041;-81
2024/01/19 06:45:17;;;;;;;0.00;0.00;;;;;;;-3.75;100.00;100852.78;4954449;28;20034;-77
2024/01/19 06:47:44;;;;;;;0.00;0.00;;;;;;;-3.64;100.00;100853.47;4977158;28;20484;-80
2024/01/19 06:50:10;;;;;;;0.10;0.10;;;;;;;-3.59;100.00;100861.81;4991511;28;20029;-79
2024/01/19 06:52:35;;;;;;;0.00;0.00;;;;;;;-3.43;100.00;100872.59;4990919;28;20030;-80
2024/01/19 06:55:01;;;;;;;0.10;0.10;;;;;;;-3.42;100.00;100858.19;4980084;28;20472;-78
2024/01/19 06:57:26;;;;;;;0.10;0.10;;;;;;;-3.51;100.00;100846.66;5005391;28;20495;-78
2024/01/19 06:59:52;;;;;;;0.00;0.00;;;;;;;-3.45;100.00;100871.91;4982667;28;20010;-77
2024/01/19 07:02:18;;;;;;;0.10;0.10;;;;;;;-3.59;100.00;100867.19;4983588;28;20021;-79
2024/01/19 07:04:43;;;;;;;0.10;0.10;;;;;;;-3.68;100.00;100868.97;4969515;28;20480;-79
2024/01/19 07:07:09;;;;;;;0.10;0.10;;;;;;;-3.57;100.00;100886.59;4963238;28;20037;-77
2024/01/19 07:09:36;;;;;;;0.10;0.10;;;;;;;-3.64;100.00;100886.38;4981382;28;20030;-78
2024/01/19 07:12:02;;;;;;;0.10;0.10;;;;;;;-3.73;100.00;100877.50;4961516;28;20058;-79
2024/01/19 07:14:27;;;;;;;0.10;0.10;;;;;;;-3.86;100.00;100877.09;4988844;28;20058;-79
2024/01/19 07:16:52;;;;;;;0.10;0.10;;;;;;;-3.90;100.00;100886.44;4961059;28;20365;-78
2024/01/19 07:19:18;;;;;;;0.00;0.00;;;;;;;-3.96;100.00;100887.09;4975067;28;20041;-79
2024/01/19 07:21:43;;;;;;;0.10;0.10;;;;;;;-3.91;100.00;100898.97;4992337;28;20040;-73
2024/01/19 07:24:10;;;;;;;0.10;0.10;;;;;;;-3.87;100.00;100907.50;4985649;28;20034;-73
2024/01/19 07:26:36;;;;;;;0.10;0.10;;;;;;;-3.91;100.00;100898.16;4999058;28;20027;-74
2024/01/19 07:29:06;;;;;;;0.10;0.10;;;;;;;-3.87;100.00;100912.84;4983969;28;20038;-76
2024/01/19 07:31:35;;;;;;;0.10;0.10;;;;;;;-3.91;100.00;100912.34;5005963;28;19998;-74
2024/01/19 07:34:01;;;;;;;0.10;0.10;;;;;;;-3.91;100.00;100911.50;4985832;28;20037;-73
2024/01/19 07:36:26;;;;;;;0.00;0.00;;;;;;;-3.93;100.00;100905.47;4991722;28;20021;-75
2024/01/19 07:38:52;;;;;;;0.10;0.10;;;;;;;-3.85;100.00;100913.53;5007228;28;20411;-73
2024/01/19 07:41:18;;;;;;;0.00;0.00;;;;;;;-3.83;100.00;100916.03;5004264;28;20034;-74
2024/01/19 07:43:47;;;;;;;0.10;0.10;;;;;;;-3.85;100.00;100918.88;4995168;28;20032;-75
2024/01/19 07:46:14;;;;;;;0.10;0.10;;;;;;;-3.98;100.00;100905.13;4989471;28;20045;-75
2024/01/19 07:48:40;;;;;;;0.10;0.10;;;;;;;-4.00;100.00;100907.94;5002431;28;20042;-76
2024/01/19 07:51:15;;;;;;;0.00;0.00;;;;;;;-3.91;100.00;100912.34;4973787;28;20022;-78
2024/01/19 07:53:41;;;;;;;0.10;0.10;;;;;;;-3.87;100.00;100919.03;4959014;28;20106;-78
2024/01/19 07:56:06;;;;;;;0.10;0.10;;;;;;;-3.98;100.00;100891.75;5009329;28;20096;-75
2024/01/19 07:58:34;;;;;;;0.10;0.10;;;;;;;-3.85;100.00;100921.56;5001752;28;20014;-76
2024/01/19 08:00:59;;;;;;;0.10;0.10;;;;;;;-3.88;100.00;100922.69;4965226;28;20027;-76
2024/01/19 08:03:25;;;;;;;0.10;0.10;;;;;;;-3.93;100.00;100914.34;5002903;28;20034;-73
2024/01/19 08:06:03;;;;;;;0.10;0.10;;;;;;;-3.98;100.00;100911.28;4966480;28;20089;-81
2024/01/19 08:08:28;;;;;;;0.10;0.10;;;;;;;-3.96;100.00;100916.47;4998072;28;20117;-75
2024/01/19 08:11:04;;;;;;;;;;;;;;;;;;;;;
2024/01/19 08:13:42;;;;;;;;;;;;;;;;;;;;;
2024/01/19 08:16:19;;;;;;;0.08;0.08;;;;;;;-3.97;100.00;100890.75;4991693;28;20050;-75
2024/01/19 08:18:47;;;;;;;0.00;0.00;;;;;;;-3.74;100.00;100918.59;4985650;28;20030;-75
2024/01/19 08:21:12;;;;;;;0.10;0.10;;;;;;;-3.49;100.00;100933.91;4979996;28;20535;-76
2024/01/19 08:23:38;;;;;;;0.10;0.10;;;;;;;-3.40;100.00;100928.44;5015578;28;20137;-76
2024/01/19 08:26:07;;;;;;;0.10;0.10;;;;;;;-3.31;100.00;100940.00;4971205;28;20152;-77
2024/01/19 08:28:32;;;;;;;0.10;0.10;;;;;;;-3.27;100.00;100930.66;5009159;28;20034;-75
2024/01/19 08:30:58;;;;;;;0.00;0.00;;;;;;;-3.18;100.00;100944.88;4969109;28;20439;-74
2024/01/19 08:33:23;;;;;;;0.00;0.00;;;;;;;-3.10;100.00;100952.09;4977752;28;20092;-75
2024/01/19 08:35:49;;;;;;;0.10;0.10;;;;;;;-3.04;100.00;100956.78;4994772;28;20114;-75
2024/01/19 08:38:15;;;;;;;0.10;0.10;;;;;;;-3.02;100.00;100952.94;4993830;28;20030;-77
2024/01/19 08:40:40;;;;;;;0.10;0.10;;;;;;;-2.95;100.00;100962.97;4993384;28;20021;-76
2024/01/19 08:43:06;;;;;;;0.10;0.10;;;;;;;-2.88;100.00;100969.34;4991645;28;20038;-74
2024/01/19 08:45:31;;;;;;;0.10;0.10;;;;;;;-2.89;100.00;100965.84;4991743;28;20012;-77
2024/01/19 08:47:57;;;;;;;0.00;0.00;;;;;;;-2.92;100.00;100955.47;4975685;28;20144;-75
2024/01/19 08:50:23;;;;;;;0.00;0.00;;;;;;;-2.77;100.00;100969.03;5006383;28;20113;-75
2024/01/19 08:52:49;;;;;;;0.00;0.00;;;;;;;-2.73;100.00;100969.53;4975332;28;20069;-76
2024/01/19 08:55:14;;;;;;;0.00;0.00;;;;;;;-2.72;100.00;100955.97;4986209;28;20065;-74
2024/01/19 08:57:40;;;;;;;0.10;0.10;;;;;;;-2.64;100.00;100964.03;5001635;28;20547;-76
2024/01/19 09:00:07;;;;;;;0.00;0.00;;;;;;;-2.52;100.00;100975.25;4993830;28;20129;-74
2024/01/19 09:02:32;;;;;;;0.10;0.10;;;;;;;-2.53;100.00;100965.53;4981507;28;20048;-75
2024/01/19 09:04:58;;;;;;;0.00;0.00;;;;;;;-2.50;100.00;100972.41;4982971;28;20037;-75
2024/01/19 09:07:24;;;;;;;0.10;0.10;;;;;;;-2.43;100.00;100981.44;4974164;28;20468;-74
2024/01/19 09:09:49;;;;;;;0.10;0.10;;;;;;;-2.44;100.00;100977.09;4982906;28;20053;-74
2024/01/19 09:12:15;;;;;;;0.00;0.00;;;;;;;-2.37;100.00;100986.13;4959518;28;20516;-76
2024/01/19 09:14:40;;;;;;;0.10;0.10;;;;;;;-2.28;100.00;100990.50;4979372;28;20058;-75
2024/01/19 09:17:05;;;;;;;0.00;0.00;;;;;;;-2.16;100.00;100987.47;4969706;28;20042;-76
2024/01/19 09:19:31;;;;;;;0.10;0.10;;;;;;;-2.05;100.00;100999.69;4973197;28;20438;-78
2024/01/19 09:21:57;;;;;;;0.00;0.00;;;;;;;-2.12;100.00;101000.38;4984386;28;20034;-77
2024/01/19 09:24:22;;;;;;;0.10;0.10;;;;;;;-2.10;100.00;101008.25;4959481;28;20049;-76
2024/01/19 09:26:48;;;;;;;0.10;0.10;;;;;;;-2.04;100.00;101007.56;5009621;28;20483;-74
2024/01/19 09:29:13;;;;;;;0.10;0.10;;;;;;;-1.96;100.00;101010.25;4988754;28;20392;-75
2024/01/19 09:31:43;;;;;;;0.10;0.10;;;;;;;-1.14;100.00;101008.34;4971378;28;20034;-74
2024/01/19 09:34:09;;;;;;;0.10;0.10;;;;;;;2.03;100.00;100999.03;4965938;28;20565;-75
2024/01/19 09:36:34;;;;;;;0.00;0.00;;;;;;;5.94;90.11;100995.88;4973972;28;20030;-75
2024/01/19 09:39:00;;;;;;;0.10;0.10;;;;;;;9.14;68.82;100999.69;4974945;28;20026;-75
2024/01/19 09:41:31;;;;;;;0.10;0.10;;;;;;;11.93;55.78;101013.56;4965961;28;20116;-78
2024/01/19 09:43:59;;;;;;;0.10;0.10;;;;;;;14.18;48.67;101011.19;4990027;28;20051;-75
2024/01/19 09:46:32;;;;;;;0.10;0.10;;;;;;;15.56;44.49;101009.13;4985057;28;20064;-77
2024/01/19 09:49:24;;;;;;;0.00;0.00;;;;;;;16.36;41.97;101019.00;5007585;28;20030;-76
2024/01/19 09:51:59;;;;;;;0.00;0.00;;;;;;;16.95;40.03;101017.00;5000256;28;20061;-76
2024/01/19 09:54:34;;;;;;;0.00;0.00;;;;;;;16.95;37.55;101011.47;5011426;28;20029;-75
2024/01/19 09:57:03;;;;;;;0.10;0.10;;;;;;;17.14;36.47;101017.03;4982604;28;20101;-74
2024/01/19 09:59:33;;;;;;;0.00;0.00;;;;;;;17.55;35.19;101013.75;4986859;28;20384;-75
2024/01/19 10:02:00;;;;;;;0.00;0.00;;;;;;;17.67;34.39;101021.59;5005923;28;20044;-75
2024/01/19 10:04:28;;;;;;;0.10;0.10;;;;;;;18.41;33.99;101022.91;5017181;28;20484;-77
2024/01/19 10:06:55;;;;;;;0.00;0.00;;;;;;;18.98;32.37;101020.75;4999209;28;20108;-77
2024/01/19 10:09:24;;;;;;;0.00;0.00;;;;;;;19.46;31.51;101022.19;4984080;28;20030;-76
2024/01/19 10:11:52;;;;;;;0.00;0.00;;;;;;;20.68;31.04;101027.84;4995823;28;20032;-77
2024/01/19 10:14:18;;;;;;;0.00;0.00;;;;;;;21.68;29.36;101017.16;4999607;28;20104;-75
2024/01/19 10:16:47;;;;;;;0.00;0.00;;;;;;;21.79;28.38;101037.13;5000623;28;20021;-75
2024/01/19 10:19:16;;;;;;;0.00;0.00;;;;;;;21.81;27.41;101020.09;4987059;28;20023;-74
2024/01/19 10:22:00;;;;;;;0.10;0.10;;;;;;;21.51;26.38;101033.84;5011746;28;20410;-77
2024/01/19 10:24:25;;;;;;;0.00;0.00;;;;;;;21.40;26.49;101031.34;5005693;28;20053;-75
2024/01/19 10:27:00;;;;;;;0.00;0.00;;;;;;;21.64;26.34;101032.88;4980487;28;20372;-75
2024/01/19 10:29:28;;;;;;;;;;;;;;;21.85;24.36;101048.94;4978172;28;20092;-76
2024/01/19 10:31:53;;;;;;;0.00;0.00;;;;;;;21.56;25.44;101030.91;4990840;28;19917;-77
2024/01/19 10:34:24;;;;;;;0.00;0.00;;;;;;;21.78;23.92;101016.81;4964975;28;20085;-75
2024/01/19 10:36:50;;;;;;;0.00;0.00;;;;;;;21.72;24.57;101040.41;4979666;28;20032;-77
2024/01/19 10:39:51;;;;;;;0.10;0.10;;;;;;;21.64;24.98;101038.44;4964775;28;20041;-75
2024/01/19 10:42:27;;;;;;;0.00;0.00;;;;;;;23.26;24.41;101022.31;4994386;28;20038;-76
2024/01/19 10:44:52;;;;;;;0.00;0.00;;;;;;;24.95;23.50;101033.22;4994553;28;20023;-76
2024/01/19 10:47:23;;;;;;;0.00;0.00;;;;;;;26.23;22.10;101029.09;4975795;28;20435;-77
2024/01/19 10:50:05;;;;;;;0.00;0.00;;;;;;;27.14;20.71;101044.25;4989085;28;20113;-76
2024/01/19 10:52:52;;;;;;;0.00;0.00;;;;;;;27.25;21.32;101050.13;5005014;28;20021;-78
2024/01/19 10:55:23;;;;;;;0.00;0.00;;;;;;;27.67;20.66;101039.06;4984572;28;20544;-76
2024/01/19 10:57:54;;;;;;;0.00;0.00;;;;;;;28.09;20.38;101045.97;4996096;28;20061;-77
2024/01/19 11:00:30;;;;;;;0.00;0.00;;;;;;;29.27;19.95;101052.09;5003497;28;20045;-76
2024/01/19 11:03:02;;;;;;;0.00;0.00;;;;;;;30.07;18.91;101046.31;4990048;28;20037;-78
2024/01/19 11:05:30;;;;;;;0.00;0.00;;;;;;;30.10;17.65;101033.47;5003509;28;20030;-78
2024/01/19 11:08:02;;;;;;;0.00;0.00;;;;;;;29.82;17.74;101057.31;4985349;28;20460;-75
2024/01/19 11:10:30;;;;;;;0.00;0.00;;;;;;;29.00;17.32;101042.78;4982379;28;20025;-78
2024/01/19 11:12:59;;;;;;;0.00;0.00;;;;;;;28.78;17.92;101034.00;4978274;28;20034;-77
2024/01/19 11:15:40;;;;;;;0.00;0.00;;;;;;;30.50;17.82;101033.91;4985199;28;20096;-76
2024/01/19 11:18:08;;;;;;;0.00;0.00;;;;;;;32.22;17.77;101050.34;4984602;28;20026;-75
2024/01/19 11:20:46;;;;;;;0.00;0.00;;;;;;;32.71;17.58;101014.88;4981261;28;20374;-77
2024/01/19 11:23:12;;;;;;;0.00;0.00;;;;;;;33.25;16.84;101036.66;4973326;28;20049;-77